Time;durP1;ratioP1;P1;durP2;ratioP2;P2;SDS_P1;SDS_P2;PMS_P1;PMS_P2;Temp;Humidity;BMP_temperature;BMP_pressure;BME280_temperature;BME280_humidity;BME280_pressure;Samples;Min_cycle;Max_cycle;Signal;HPM_P1;HPM_P2
2023/11/02 00:01:28;;;;;;;8.00;5.80;;;;;;;14.97;67.45;100402.38;110000;1275;21851;-70
2023/11/02 00:03:54;;;;;;;9.70;5.50;;;;;;;14.88;67.23;100401.56;109969;1286;21977;-62
2023/11/02 00:06:36;;;;;;;8.60;6.40;;;;;;;14.72;67.52;100401.83;109955;1284;21947;-69
2023/11/02 00:09:10;;;;;;;8.50;5.80;;;;;;;14.63;67.72;100404.75;109988;1286;21936;-62
2023/11/02 00:11:54;;;;;;;10.30;6.20;;;;;;;14.54;67.62;100405.86;109995;1280;21872;-70
2023/11/02 00:14:20;;;;;;;8.90;5.90;;;;;;;14.45;67.66;100403.83;109984;1286;21943;-70
2023/11/02 00:16:49;;;;;;;9.20;6.00;;;;;;;14.37;67.75;100401.20;109982;1283;21906;-69
2023/11/02 00:19:31;;;;;;;9.80;6.50;;;;;;;14.33;68.12;100395.31;109927;1286;21945;-70
2023/11/02 00:21:58;;;;;;;8.50;6.30;;;;;;;14.33;68.24;100394.81;109980;1280;21917;-69
2023/11/02 00:24:24;;;;;;;7.00;5.10;;;;;;;14.31;68.28;100389.20;109964;1286;21936;-70
2023/11/02 00:26:50;;;;;;;8.10;5.70;;;;;;;14.28;68.27;100388.73;109977;1283;21960;-70
2023/11/02 00:29:15;;;;;;;7.70;5.60;;;;;;;14.30;68.29;100387.80;109953;1279;21983;-70
2023/11/02 00:31:41;;;;;;;7.50;5.30;;;;;;;14.39;67.85;100389.51;109970;1286;21919;-70
2023/11/02 00:34:07;;;;;;;7.90;5.70;;;;;;;14.38;67.54;100388.81;109980;1275;21938;-71
2023/11/02 00:36:33;;;;;;;8.10;5.00;;;;;;;14.36;67.43;100390.12;109968;1286;21855;-63
2023/11/02 00:38:58;;;;;;;7.80;5.00;;;;;;;14.35;67.41;100394.40;109963;1276;21929;-72
2023/11/02 00:41:24;;;;;;;7.70;5.80;;;;;;;14.36;67.41;100390.83;109977;1275;21938;-69
2023/11/02 00:43:49;;;;;;;10.40;5.60;;;;;;;14.35;67.71;100388.20;109966;1286;21963;-70
2023/11/02 00:46:15;;;;;;;7.00;5.50;;;;;;;14.31;67.88;100388.32;109944;1286;21906;-71
2023/11/02 00:48:41;;;;;;;8.50;5.80;;;;;;;14.35;67.36;100392.96;109984;1277;21974;-62
2023/11/02 00:51:07;;;;;;;7.40;5.10;;;;;;;14.33;66.73;100395.16;109956;1286;21919;-62
2023/11/02 00:53:33;;;;;;;7.80;5.80;;;;;;;14.27;66.51;100397.61;109977;1279;21933;-62
2023/11/02 00:56:03;;;;;;;7.70;5.90;;;;;;;14.23;66.61;100399.65;109984;1286;21902;-72
2023/11/02 00:58:29;;;;;;;9.50;7.20;;;;;;;14.20;66.69;100399.02;109979;1282;22289;-69
2023/11/02 01:00:55;;;;;;;9.50;6.30;;;;;;;14.17;66.70;100396.45;109968;1286;22071;-72
2023/11/02 01:03:20;;;;;;;8.70;6.50;;;;;;;14.14;66.71;100393.36;109967;1286;21948;-72
2023/11/02 01:05:46;;;;;;;8.60;6.20;;;;;;;14.14;66.82;100393.89;109974;1286;22009;-62
2023/11/02 01:08:12;;;;;;;9.40;5.80;;;;;;;14.15;66.85;100394.58;109954;1277;21949;-72
2023/11/02 01:10:38;;;;;;;7.30;5.40;;;;;;;14.14;66.89;100395.66;109972;1283;21978;-62
2023/11/02 01:13:14;;;;;;;8.90;6.20;;;;;;;14.13;66.91;100401.48;109973;1286;22417;-67
2023/11/02 01:15:42;;;;;;;8.00;6.30;;;;;;;14.10;66.68;100401.05;109978;1280;21950;-62
2023/11/02 01:18:14;;;;;;;7.50;5.80;;;;;;;14.04;66.40;100401.21;109972;1284;21963;-73
2023/11/02 01:20:39;;;;;;;7.50;5.50;;;;;;;13.95;66.39;100397.18;109919;1286;21866;-72
2023/11/02 01:23:09;;;;;;;6.90;4.80;;;;;;;13.92;66.42;100397.44;109983;1275;21937;-72
2023/11/02 01:25:43;;;;;;;5.50;4.30;;;;;;;13.90;66.55;100398.94;109202;1286;1002387;-63
2023/11/02 01:28:14;;;;;;;5.60;4.90;;;;;;;13.90;66.72;100399.45;109973;1280;21926;-71
2023/11/02 01:30:39;;;;;;;6.80;4.90;;;;;;;13.90;66.73;100402.11;109952;1286;21956;-72
2023/11/02 01:33:28;;;;;;;6.80;5.30;;;;;;;13.90;66.78;100406.17;109958;1283;21942;-62
2023/11/02 01:35:54;;;;;;;7.00;5.10;;;;;;;13.89;66.72;100403.02;109966;1286;21928;-72
2023/11/02 01:38:20;;;;;;;6.80;4.90;;;;;;;13.86;66.72;100403.95;109973;1276;21929;-62
2023/11/02 01:40:52;;;;;;;8.10;5.10;;;;;;;13.86;66.79;100404.86;109912;1286;21930;-72
2023/11/02 01:43:29;;;;;;;6.90;4.70;;;;;;;13.83;66.79;100409.33;109957;1286;21950;-73
2023/11/02 01:45:56;;;;;;;8.20;4.40;;;;;;;13.83;66.93;100417.61;109970;1278;21935;-73
2023/11/02 01:48:22;;;;;;;7.30;4.90;;;;;;;13.85;67.04;100421.79;109958;1286;21981;-73
2023/11/02 01:51:08;;;;;;;7.30;5.10;;;;;;;13.88;67.03;100430.37;109990;1280;21841;-62
2023/11/02 01:53:49;;;;;;;6.60;5.10;;;;;;;13.91;67.07;100431.70;109967;1286;21994;-73
2023/11/02 01:56:36;;;;;;;6.80;5.10;;;;;;;13.91;66.71;100431.89;109965;1284;21902;-62
2023/11/02 01:59:07;;;;;;;5.50;4.10;;;;;;;13.86;66.36;100427.78;109991;1283;22074;-62
2023/11/02 02:01:37;;;;;;;8.70;4.70;;;;;;;13.82;66.18;100427.18;109966;1280;21875;-72
2023/11/02 02:04:28;;;;;;;7.00;4.80;;;;;;;13.79;66.08;100429.73;109969;1273;21966;-72
2023/11/02 02:07:05;;;;;;;5.40;4.30;;;;;;;13.76;65.93;100435.27;109210;1286;1002508;-73
2023/11/02 02:09:36;;;;;;;6.80;4.30;;;;;;;13.73;66.04;100439.02;109989;1286;21972;-73
2023/11/02 02:12:28;;;;;;;6.40;4.70;;;;;;;13.71;66.14;100440.30;109971;1284;21894;-73
2023/11/02 02:15:06;;;;;;;6.00;4.30;;;;;;;13.73;66.48;100442.02;109788;1286;21950;-62
2023/11/02 02:17:38;;;;;;;7.30;4.50;;;;;;;13.75;66.60;100442.67;109945;1286;21985;-62
2023/11/02 02:20:08;;;;;;;6.50;4.20;;;;;;;13.77;66.57;100438.91;109848;1286;21927;-73
2023/11/02 02:22:37;;;;;;;5.20;3.70;;;;;;;13.77;66.07;100436.46;109947;1278;22018;-62
2023/11/02 02:25:12;;;;;;;5.20;4.00;;;;;;;13.69;65.44;100434.02;109956;1277;22596;-62
2023/11/02 02:27:48;;;;;;;6.30;4.10;;;;;;;13.56;65.06;100437.15;109931;1287;21944;-73
2023/11/02 02:30:25;;;;;;;6.90;5.00;;;;;;;13.43;65.01;100445.38;109846;1287;21848;-73
2023/11/02 02:33:15;;;;;;;5.70;4.30;;;;;;;13.33;65.29;100443.45;109941;1287;21884;-62
2023/11/02 02:35:45;;;;;;;8.00;4.60;;;;;;;13.24;65.26;100444.90;109939;1287;21879;-73
2023/11/02 02:38:17;;;;;;;6.10;3.90;;;;;;;13.13;65.06;100440.20;109937;1287;21945;-74
2023/11/02 02:41:00;;;;;;;5.10;4.20;;;;;;;13.04;65.35;100438.44;109850;1281;21969;-73
2023/11/02 02:43:26;;;;;;;6.90;4.50;;;;;;;12.92;65.81;100444.54;109927;1287;21979;-61
2023/11/02 02:45:51;;;;;;;8.30;5.20;;;;;;;12.83;66.42;100443.99;109933;1280;21950;-61
2023/11/02 02:48:17;;;;;;;6.10;4.60;;;;;;;12.81;66.59;100439.80;109827;1286;22003;-61
2023/11/02 02:50:43;;;;;;;7.40;4.90;;;;;;;12.79;66.65;100436.52;109837;1287;21968;-73
2023/11/02 02:53:08;;;;;;;7.30;4.80;;;;;;;12.79;66.56;100431.59;109841;1287;21945;-74
2023/11/02 02:55:34;;;;;;;7.40;4.80;;;;;;;12.79;66.75;100430.17;109173;1287;1002217;-61
2023/11/02 02:58:01;;;;;;;7.30;5.40;;;;;;;12.83;67.06;100435.89;109817;1287;21950;-74
2023/11/02 03:00:30;;;;;;;8.20;4.80;;;;;;;12.88;67.27;100428.75;109851;1278;21901;-62
2023/11/02 03:02:57;;;;;;;10.50;5.60;;;;;;;12.93;67.58;100429.16;109940;1283;22028;-62
2023/11/02 03:05:24;;;;;;;9.00;5.30;;;;;;;13.00;67.63;100423.75;109936;1283;22016;-73
2023/11/02 03:07:53;;;;;;;9.70;5.60;;;;;;;13.05;67.56;100429.29;109935;1286;21955;-62
2023/11/02 03:10:19;;;;;;;8.10;5.70;;;;;;;13.07;67.20;100435.73;109945;1285;22004;-62
2023/11/02 03:12:47;;;;;;;8.70;6.30;;;;;;;13.05;66.82;100435.42;109919;1286;21950;-71
2023/11/02 03:15:13;;;;;;;8.40;5.80;;;;;;;13.01;66.80;100434.46;109950;1276;21929;-73
2023/11/02 03:17:46;;;;;;;8.10;5.10;;;;;;;13.01;66.89;100433.93;109088;1279;1002740;-73
2023/11/02 03:20:12;;;;;;;7.20;5.30;;;;;;;13.01;66.96;100429.36;109945;1280;21952;-73
2023/11/02 03:22:41;;;;;;;5.80;4.40;;;;;;;13.03;66.98;100426.84;109944;1286;21940;-63
2023/11/02 03:25:24;;;;;;;7.80;4.20;;;;;;;13.03;66.93;100427.55;109930;1277;21961;-62
2023/11/02 03:28:18;;;;;;;5.70;3.90;;;;;;;13.02;66.93;100423.34;109934;1280;21955;-62
2023/11/02 03:30:59;;;;;;;6.70;4.20;;;;;;;13.02;66.74;100419.84;109953;1287;21991;-61
2023/11/02 03:33:43;;;;;;;5.50;3.60;;;;;;;13.01;66.66;100422.33;109174;1287;1002232;-68
2023/11/02 03:36:19;;;;;;;4.70;3.20;;;;;;;13.00;66.39;100423.73;109925;1283;22009;-61
2023/11/02 03:39:09;;;;;;;4.80;3.60;;;;;;;12.98;66.04;100424.66;109956;1286;21966;-73
2023/11/02 03:42:03;;;;;;;5.70;3.90;;;;;;;12.94;66.02;100430.73;109934;1286;21941;-62
2023/11/02 03:44:56;;;;;;;6.00;4.10;;;;;;;12.89;65.99;100436.11;109934;1286;21935;-61
2023/11/02 03:47:30;;;;;;;5.50;4.30;;;;;;;12.87;65.97;100434.23;109941;1287;21953;-73
2023/11/02 03:50:22;;;;;;;7.30;4.60;;;;;;;12.86;66.00;100438.47;109942;1278;21951;-74
2023/11/02 03:53:32;;;;;;;6.30;4.20;;;;;;;12.84;65.71;100442.73;109920;1286;21956;-74
2023/11/02 03:56:16;;;;;;;6.70;4.10;;;;;;;12.84;65.85;100444.52;109846;1283;21946;-75
2023/11/02 03:58:52;;;;;;;7.40;4.20;;;;;;;12.83;65.91;100433.09;109917;1286;22122;-73
2023/11/02 04:01:26;;;;;;;6.90;4.20;;;;;;;12.79;65.62;100431.41;109924;1286;21949;-62
2023/11/02 04:03:52;;;;;;;4.60;3.20;;;;;;;12.75;65.53;100434.31;109936;1280;21966;-61
2023/11/02 04:06:20;;;;;;;7.80;3.50;;;;;;;12.70;65.35;100438.80;109831;1287;22001;-62
2023/11/02 04:08:46;;;;;;;4.70;3.20;;;;;;;12.65;65.42;100438.88;109948;1279;21955;-61
2023/11/02 04:11:29;;;;;;;4.90;3.40;;;;;;;12.62;65.32;100448.27;109810;1286;21964;-73
2023/11/02 04:14:17;;;;;;;4.00;3.10;;;;;;;12.62;65.52;100449.68;109863;1284;21959;-61
2023/11/02 04:16:43;;;;;;;3.60;2.90;;;;;;;12.64;65.82;100455.81;109904;1287;22014;-61
2023/11/02 04:19:08;;;;;;;4.10;3.00;;;;;;;12.66;65.76;100459.32;109739;1283;21950;-62
2023/11/02 04:21:34;;;;;;;5.20;4.20;;;;;;;12.65;65.73;100462.66;110004;1287;21900;-63
2023/11/02 04:23:59;;;;;;;5.40;4.30;;;;;;;12.64;65.76;100459.67;109995;1287;21837;-63
2023/11/02 04:26:26;;;;;;;6.80;6.10;;;;;;;12.63;65.68;100456.70;109989;1286;21893;-64
2023/11/02 04:28:52;;;;;;;7.40;4.30;;;;;;;12.62;65.56;100458.14;110012;1287;21958;-64
2023/11/02 04:31:18;;;;;;;7.70;4.70;;;;;;;12.62;65.79;100458.84;109921;1276;21990;-76
2023/11/02 04:33:43;;;;;;;8.40;4.30;;;;;;;12.63;65.95;100458.83;109835;1288;22364;-62
2023/11/02 04:36:09;;;;;;;5.30;3.50;;;;;;;12.61;65.55;100458.50;109808;1287;21924;-62
2023/11/02 04:38:35;;;;;;;9.30;3.60;;;;;;;12.57;65.35;100460.55;109883;1281;21966;-76
2023/11/02 04:41:00;;;;;;;4.50;2.80;;;;;;;12.54;65.36;100465.16;109891;1288;21927;-64
2023/11/02 04:43:26;;;;;;;7.70;2.90;;;;;;;12.53;65.30;100467.14;109831;1282;21945;-76
2023/11/02 04:45:51;;;;;;;5.30;2.90;;;;;;;12.51;65.38;100468.04;109884;1283;21853;-62
2023/11/02 04:48:17;;;;;;;3.40;2.40;;;;;;;12.49;65.21;100469.13;109845;1286;21955;-75
2023/11/02 04:50:43;;;;;;;7.00;2.60;;;;;;;12.48;65.32;100465.98;109889;1276;21919;-76
2023/11/02 04:53:09;;;;;;;5.10;2.30;;;;;;;12.46;65.06;100466.02;109873;1279;21996;-71
2023/11/02 04:55:35;;;;;;;5.80;2.10;;;;;;;12.44;65.10;100465.00;109860;1287;21863;-75
2023/11/02 04:58:01;;;;;;;3.40;1.90;;;;;;;12.41;64.69;100469.45;109846;1283;22002;-62
2023/11/02 05:00:26;;;;;;;2.70;2.00;;;;;;;12.36;64.53;100470.77;109917;1284;22503;-75
2023/11/02 05:02:52;;;;;;;3.70;2.20;;;;;;;12.32;64.50;100479.48;109859;1288;22001;-74
2023/11/02 05:05:18;;;;;;;2.80;2.00;;;;;;;12.32;64.74;100482.29;109899;1276;21861;-61
2023/11/02 05:07:44;;;;;;;4.10;2.20;;;;;;;12.33;64.97;100481.21;109811;1288;21941;-62
2023/11/02 05:10:10;;;;;;;3.90;2.30;;;;;;;12.38;65.29;100479.01;109889;1283;21948;-74
2023/11/02 05:12:35;;;;;;;3.60;2.60;;;;;;;12.42;65.22;100481.59;109897;1280;21910;-63
2023/11/02 05:15:02;;;;;;;3.00;2.00;;;;;;;12.44;65.02;100486.46;109903;1281;21908;-62
2023/11/02 05:17:27;;;;;;;4.00;1.90;;;;;;;12.45;65.17;100488.38;109836;1280;21957;-62
2023/11/02 05:19:53;;;;;;;4.40;2.50;;;;;;;12.49;65.47;100490.59;109870;1288;21954;-62
2023/11/02 05:22:19;;;;;;;4.20;2.70;;;;;;;12.48;65.17;100490.61;109898;1279;21962;-74
2023/11/02 05:24:44;;;;;;;8.90;3.30;;;;;;;12.48;65.33;100490.09;109888;1286;21927;-74
2023/11/02 05:27:10;;;;;;;6.00;2.90;;;;;;;12.50;65.82;100489.52;109888;1288;21946;-74
2023/11/02 05:29:35;;;;;;;5.40;2.70;;;;;;;12.57;66.38;100492.20;109893;1282;22021;-61
2023/11/02 05:32:01;;;;;;;3.90;2.60;;;;;;;12.67;66.48;100495.73;109872;1287;22003;-61
2023/11/02 05:34:26;;;;;;;5.80;3.10;;;;;;;12.76;66.54;100501.71;109880;1279;21945;-61
2023/11/02 05:36:53;;;;;;;9.30;2.90;;;;;;;12.86;66.82;100505.22;109873;1276;21954;-73
2023/11/02 05:39:19;;;;;;;7.20;2.40;;;;;;;12.96;67.11;100505.38;109848;1287;22446;-62
2023/11/02 05:41:44;;;;;;;9.70;2.50;;;;;;;13.07;67.27;100499.33;109894;1276;22001;-61
2023/11/02 05:44:13;;;;;;;8.80;2.80;;;;;;;13.18;67.25;100497.19;109871;1276;21944;-62
2023/11/02 05:46:39;;;;;;;4.50;3.00;;;;;;;13.26;67.02;100496.31;109885;1288;22058;-61
2023/11/02 05:49:05;;;;;;;7.50;3.30;;;;;;;13.29;66.58;100500.45;109896;1288;21943;-62
2023/11/02 05:51:30;;;;;;;10.30;3.30;;;;;;;13.34;66.97;100502.48;109872;1287;21915;-70
2023/11/02 05:53:56;;;;;;;6.00;3.00;;;;;;;13.43;67.54;100504.61;109892;1288;21959;-70
2023/11/02 05:56:22;;;;;;;5.20;3.10;;;;;;;13.53;67.80;100505.09;109890;1279;21916;-63
2023/11/02 05:58:52;;;;;;;3.90;2.90;;;;;;;13.63;67.92;100506.64;109888;1280;22366;-62
2023/11/02 06:01:18;;;;;;;3.50;2.20;;;;;;;13.73;68.04;100503.90;109904;1283;21954;-68
2023/11/02 06:03:47;;;;;;;6.50;3.40;;;;;;;13.84;68.10;100499.27;109893;1287;21988;-68
2023/11/02 06:06:13;;;;;;;6.00;3.40;;;;;;;13.92;68.22;100501.70;109890;1288;21938;-69
2023/11/02 06:08:38;;;;;;;6.90;3.70;;;;;;;14.01;68.37;100502.73;109887;1287;21968;-70
2023/11/02 06:11:04;;;;;;;6.90;3.90;;;;;;;14.12;68.72;100501.23;109883;1288;21909;-69
2023/11/02 06:13:30;;;;;;;6.50;4.30;;;;;;;14.22;68.59;100501.68;109894;1279;22413;-69
2023/11/02 06:15:56;;;;;;;8.30;4.10;;;;;;;14.32;68.90;100501.60;109875;1287;21946;-69
2023/11/02 06:18:22;;;;;;;7.10;3.20;;;;;;;14.45;69.21;100501.60;109884;1288;21997;-62
2023/11/02 06:20:47;;;;;;;6.20;2.70;;;;;;;14.60;69.68;100495.94;109881;1288;21932;-62
2023/11/02 06:23:13;;;;;;;15.10;7.60;;;;;;;14.77;70.17;100490.20;109826;1283;22381;-68
2023/11/02 06:25:38;;;;;;;8.30;4.90;;;;;;;14.91;70.03;100486.45;109887;1276;21898;-64
2023/11/02 06:28:04;;;;;;;6.60;4.10;;;;;;;14.99;69.48;100481.42;109897;1287;22007;-68
2023/11/02 06:30:31;;;;;;;5.50;3.70;;;;;;;15.05;69.31;100482.34;109821;1281;21964;-63
2023/11/02 06:32:57;;;;;;;6.40;4.90;;;;;;;15.14;70.02;100475.89;109843;1288;21924;-64
2023/11/02 06:35:23;;;;;;;12.60;4.50;;;;;;;15.27;70.63;100470.20;109810;1282;21954;-68
2023/11/02 06:37:58;;;;;;;4.80;3.80;;;;;;;15.42;70.78;100471.50;109843;1287;21929;-63
2023/11/02 06:40:28;;;;;;;5.80;4.20;;;;;;;15.57;70.98;100468.39;109852;1288;22452;-68
2023/11/02 06:42:55;;;;;;;7.50;4.80;;;;;;;15.71;70.88;100465.48;109868;1276;22448;-67
2023/11/02 06:45:21;;;;;;;6.10;4.50;;;;;;;15.82;70.53;100465.31;109855;1288;21950;-68
2023/11/02 06:47:47;;;;;;;8.20;5.20;;;;;;;15.89;70.51;100466.16;109895;1288;21897;-67
2023/11/02 06:50:12;;;;;;;7.40;4.40;;;;;;;15.96;70.24;100468.95;109901;1283;21941;-67
2023/11/02 06:52:38;;;;;;;6.60;5.40;;;;;;;16.04;70.56;100471.86;109877;1288;21928;-67
2023/11/02 06:55:04;;;;;;;7.50;5.50;;;;;;;16.14;70.84;100467.61;109842;1278;21853;-67
2023/11/02 06:57:30;;;;;;;8.50;5.00;;;;;;;16.25;71.15;100468.14;109902;1287;21960;-63
2023/11/02 06:59:55;;;;;;;8.70;5.20;;;;;;;16.37;71.57;100462.05;109882;1286;21953;-67
2023/11/02 07:02:24;;;;;;;8.70;4.40;;;;;;;16.50;71.65;100463.38;109883;1288;21938;-68
2023/11/02 07:04:55;;;;;;;7.70;4.50;;;;;;;16.61;71.57;100461.05;109874;1288;21963;-66
2023/11/02 07:07:21;;;;;;;6.50;4.90;;;;;;;16.72;71.77;100457.45;109882;1282;21961;-63
2023/11/02 07:09:47;;;;;;;8.70;5.30;;;;;;;16.82;71.75;100456.21;109900;1276;22018;-66
2023/11/02 07:12:14;;;;;;;12.20;6.90;;;;;;;16.92;71.82;100456.39;109884;1274;21975;-63
2023/11/02 07:14:44;;;;;;;17.50;9.60;;;;;;;17.00;71.68;100450.41;109900;1288;21932;-66
2023/11/02 07:17:09;;;;;;;18.50;9.50;;;;;;;17.07;71.50;100446.27;109895;1287;21988;-64
2023/11/02 07:19:35;;;;;;;16.10;9.70;;;;;;;17.13;71.55;100443.02;109885;1283;21935;-64
2023/11/02 07:22:01;;;;;;;12.40;7.30;;;;;;;17.19;71.43;100438.01;109896;1276;22036;-63
2023/11/02 07:24:27;;;;;;;10.50;6.40;;;;;;;17.23;71.18;100442.26;109887;1287;22005;-66
2023/11/02 07:26:53;;;;;;;10.70;5.80;;;;;;;17.27;71.32;100441.42;109894;1287;21894;-67
2023/11/02 07:29:19;;;;;;;9.00;6.10;;;;;;;17.32;71.40;100439.80;109874;1288;21993;-65
2023/11/02 07:31:45;;;;;;;11.00;7.30;;;;;;;17.39;71.68;100440.44;109899;1287;21920;-65
2023/11/02 07:34:10;;;;;;;11.80;6.70;;;;;;;17.46;71.83;100441.91;109891;1279;22001;-66
2023/11/02 07:36:36;;;;;;;11.90;7.30;;;;;;;17.54;72.04;100446.56;109962;1286;21961;-66
2023/11/02 07:39:03;;;;;;;9.20;5.90;;;;;;;17.64;72.12;100447.21;109946;1287;21930;-66
2023/11/02 07:41:32;;;;;;;11.90;5.80;;;;;;;17.73;71.94;100452.02;109956;1283;21962;-66
2023/11/02 07:43:58;;;;;;;9.40;4.50;;;;;;;17.81;71.88;100453.48;109943;1286;21940;-64
2023/11/02 07:46:23;;;;;;;9.90;5.00;;;;;;;17.89;71.99;100456.67;109959;1286;21970;-66
2023/11/02 07:48:49;;;;;;;6.40;4.80;;;;;;;17.97;71.87;100452.11;109937;1286;21961;-64
2023/11/02 07:51:15;;;;;;;8.80;5.60;;;;;;;18.03;71.64;100445.67;109940;1287;21946;-66
2023/11/02 07:53:41;;;;;;;7.40;5.30;;;;;;;18.09;71.63;100444.72;109952;1273;21972;-64
2023/11/02 07:56:08;;;;;;;10.10;4.90;;;;;;;18.14;71.68;100445.54;109962;1274;21946;-65
2023/11/02 07:58:36;;;;;;;11.30;5.50;;;;;;;18.21;71.68;100444.56;109961;1286;21943;-64
2023/11/02 08:01:03;;;;;;;6.30;5.00;;;;;;;18.28;71.82;100450.68;109958;1286;22003;-64
2023/11/02 08:03:28;;;;;;;7.40;5.80;;;;;;;18.33;71.26;100456.12;109943;1283;21944;-65
2023/11/02 08:05:54;;;;;;;8.90;5.60;;;;;;;18.26;69.80;100467.23;109943;1280;21865;-65
2023/11/02 08:08:19;;;;;;;9.00;5.60;;;;;;;18.15;69.61;100466.83;109950;1286;21869;-67
2023/11/02 08:10:46;;;;;;;8.20;6.40;;;;;;;18.11;70.12;100464.65;109960;1279;21918;-64
2023/11/02 08:13:12;;;;;;;8.20;6.10;;;;;;;18.16;70.77;100462.33;109941;1286;21963;-65
2023/11/02 08:15:38;;;;;;;11.60;5.60;;;;;;;18.27;71.68;100459.92;109954;1276;21946;-65
2023/11/02 08:18:04;;;;;;;11.10;5.30;;;;;;;18.41;71.98;100465.90;109934;1279;22013;-65
2023/11/02 08:20:29;;;;;;;9.50;5.60;;;;;;;18.57;72.75;100465.53;109958;1286;21937;-63
2023/11/02 08:22:55;;;;;;;6.70;5.30;;;;;;;18.76;73.25;100468.44;109914;1286;22016;-65
2023/11/02 08:25:20;;;;;;;7.40;5.00;;;;;;;18.97;74.25;100470.70;109940;1286;21924;-63
2023/11/02 08:27:48;;;;;;;8.30;5.30;;;;;;;19.22;74.45;100466.21;109937;1286;22012;-66
2023/11/02 08:30:15;;;;;;;6.80;5.00;;;;;;;19.46;74.88;100465.60;109951;1273;22021;-66
2023/11/02 08:32:41;;;;;;;7.10;4.10;;;;;;;19.68;74.29;100468.30;109952;1285;22013;-62
2023/11/02 08:35:07;;;;;;;8.40;5.10;;;;;;;19.82;73.73;100464.02;109937;1286;21934;-62
2023/11/02 08:37:33;;;;;;;7.60;5.20;;;;;;;19.93;73.21;100461.19;109961;1283;22006;-63
2023/11/02 08:39:59;;;;;;;9.80;4.50;;;;;;;20.00;72.34;100464.80;109954;1287;21965;-63
2023/11/02 08:42:28;;;;;;;8.90;4.70;;;;;;;19.94;70.88;100465.78;109951;1286;22016;-62
2023/11/02 08:44:53;;;;;;;8.50;4.40;;;;;;;19.91;71.15;100469.84;109928;1286;21988;-62
2023/11/02 08:47:19;;;;;;;6.80;4.60;;;;;;;19.97;71.71;100475.98;109940;1283;21979;-67
2023/11/02 08:49:44;;;;;;;8.90;4.30;;;;;;;20.05;71.13;100473.98;109938;1286;21888;-67
2023/11/02 08:52:10;;;;;;;9.60;4.70;;;;;;;19.99;69.92;100462.87;109922;1286;21909;-67
2023/11/02 08:54:36;;;;;;;7.30;4.50;;;;;;;19.96;70.76;100456.27;109953;1280;21970;-67
2023/11/02 08:57:01;;;;;;;8.70;5.20;;;;;;;20.00;70.97;100451.23;109934;1286;21838;-61
2023/11/02 08:59:27;;;;;;;7.10;4.10;;;;;;;20.09;71.59;100443.31;109943;1286;21944;-61
2023/11/02 09:01:53;;;;;;;10.30;4.80;;;;;;;20.23;72.72;100428.16;109942;1286;22012;-68
2023/11/02 09:04:19;;;;;;;8.90;4.70;;;;;;;20.45;73.23;100421.17;109950;1287;21943;-68
2023/11/02 09:06:45;;;;;;;9.30;4.60;;;;;;;20.67;73.56;100418.92;109953;1286;21923;-62
2023/11/02 09:09:11;;;;;;;7.90;5.10;;;;;;;20.85;73.23;100422.95;109939;1286;21983;-61
2023/11/02 09:11:36;;;;;;;8.70;4.80;;;;;;;21.03;73.41;100420.95;109942;1286;22414;-62
2023/11/02 09:14:02;;;;;;;5.10;3.80;;;;;;;21.19;73.31;100422.14;109944;1279;21873;-68
2023/11/02 09:16:28;;;;;;;8.50;4.40;;;;;;;21.29;70.79;100416.10;109937;1287;21940;-68
2023/11/02 09:18:54;;;;;;;9.20;4.30;;;;;;;21.30;71.07;100412.10;109954;1282;21942;-62
2023/11/02 09:21:20;;;;;;;6.40;3.60;;;;;;;21.43;72.02;100409.39;109957;1276;22389;-62
2023/11/02 09:23:46;;;;;;;6.70;4.10;;;;;;;21.57;71.80;100406.99;109960;1286;21947;-68
2023/11/02 09:26:12;;;;;;;6.30;4.20;;;;;;;21.71;72.04;100399.42;109957;1282;21908;-69
2023/11/02 09:28:37;;;;;;;6.90;4.30;;;;;;;21.85;71.68;100392.00;109840;1286;21962;-69
2023/11/02 09:31:04;;;;;;;9.10;4.00;;;;;;;22.00;71.70;100381.66;109946;1279;21849;-64
2023/11/02 09:33:29;;;;;;;5.00;3.80;;;;;;;22.15;71.63;100373.64;109952;1287;21943;-68
2023/11/02 09:35:55;;;;;;;7.50;3.80;;;;;;;22.28;71.20;100361.06;109954;1283;21905;-69
2023/11/02 09:38:21;;;;;;;5.50;3.80;;;;;;;22.42;70.94;100354.14;109968;1286;21960;-69
2023/11/02 09:40:46;;;;;;;6.20;4.50;;;;;;;22.56;70.90;100346.14;109964;1286;21922;-61
2023/11/02 09:43:12;;;;;;;7.10;5.00;;;;;;;22.66;70.53;100334.40;109956;1286;21959;-68
2023/11/02 09:45:37;;;;;;;9.20;5.80;;;;;;;22.77;70.53;100332.45;109962;1280;21868;-70
2023/11/02 09:48:03;;;;;;;8.20;4.70;;;;;;;22.84;69.89;100336.66;109852;1286;22166;-69
2023/11/02 09:50:29;;;;;;;8.30;4.60;;;;;;;22.90;69.47;100337.35;109966;1279;22008;-62
2023/11/02 09:52:55;;;;;;;9.90;5.80;;;;;;;22.98;69.48;100329.87;109942;1279;21905;-69
2023/11/02 09:55:22;;;;;;;7.00;5.70;;;;;;;23.10;69.36;100322.80;109908;1287;22008;-61
2023/11/02 09:57:48;;;;;;;8.10;4.70;;;;;;;23.20;68.94;100326.63;109942;1276;21935;-61
2023/11/02 10:00:17;;;;;;;8.60;4.60;;;;;;;23.28;68.66;100327.72;109949;1287;22106;-70
2023/11/02 10:02:46;;;;;;;6.80;4.10;;;;;;;23.34;68.21;100321.05;109963;1279;21878;-69
2023/11/02 10:05:11;;;;;;;7.70;3.90;;;;;;;23.38;67.86;100315.84;109958;1287;21839;-61
2023/11/02 10:07:37;;;;;;;7.30;4.40;;;;;;;23.43;67.98;100318.35;109963;1286;21931;-69
2023/11/02 10:10:04;;;;;;;5.40;3.70;;;;;;;23.53;67.78;100324.80;109932;1287;22374;-70
2023/11/02 10:12:35;;;;;;;10.50;5.20;;;;;;;23.67;68.25;100327.99;109936;1287;21956;-61
2023/11/02 10:15:05;;;;;;;7.20;4.20;;;;;;;23.92;68.51;100330.11;109934;1286;22102;-62
2023/11/02 10:17:35;;;;;;;8.10;4.30;;;;;;;24.22;68.55;100331.60;109955;1286;21984;-61
2023/11/02 10:20:07;;;;;;;6.30;4.30;;;;;;;24.52;68.31;100326.63;109942;1287;21900;-61
2023/11/02 10:22:32;;;;;;;9.30;4.50;;;;;;;24.77;67.19;100326.80;109959;1287;21929;-72
2023/11/02 10:24:58;;;;;;;9.10;3.60;;;;;;;24.93;66.00;100327.65;109977;1287;21915;-61
2023/11/02 10:27:24;;;;;;;6.50;3.40;;;;;;;25.01;65.01;100334.80;109939;1287;21884;-71
2023/11/02 10:29:50;;;;;;;4.50;3.00;;;;;;;24.98;62.73;100332.88;109946;1287;21952;-61
2023/11/02 10:32:16;;;;;;;5.20;2.80;;;;;;;24.84;62.39;100330.80;109934;1287;21963;-71
2023/11/02 10:34:43;;;;;;;5.80;3.10;;;;;;;24.86;63.70;100329.77;109840;1287;21926;-71
2023/11/02 10:37:09;;;;;;;10.70;5.90;;;;;;;25.00;64.39;100327.48;109943;1286;21955;-61
2023/11/02 10:39:34;;;;;;;24.70;11.40;;;;;;;25.14;63.86;100326.80;109953;1287;21932;-61
2023/11/02 10:42:00;;;;;;;7.10;4.10;;;;;;;25.25;62.52;100326.20;109852;1286;21931;-60
2023/11/02 10:44:30;;;;;;;5.70;3.30;;;;;;;25.29;62.72;100328.07;109961;1287;21936;-61
2023/11/02 10:47:01;;;;;;;5.10;3.30;;;;;;;25.45;63.16;100328.30;109942;1286;21956;-71
2023/11/02 10:49:36;;;;;;;5.60;3.40;;;;;;;25.61;62.01;100324.59;109935;1287;21971;-60
2023/11/02 10:52:05;;;;;;;112.70;10.60;;;;;;;25.75;62.12;100313.46;109959;1287;21945;-61
2023/11/02 10:54:45;;;;;;;30.00;5.10;;;;;;;25.94;62.63;100302.32;109944;1286;21942;-71
2023/11/02 10:57:18;;;;;;;14.20;4.30;;;;;;;26.14;61.74;100304.54;109952;1286;21933;-61
2023/11/02 10:59:44;;;;;;;7.60;3.00;;;;;;;26.25;60.90;100306.91;109904;1287;21920;-71
2023/11/02 11:02:17;;;;;;;9.10;2.30;;;;;;;26.32;60.65;100309.09;109954;1287;22025;-67
2023/11/02 11:04:44;;;;;;;6.40;2.30;;;;;;;26.36;60.14;100302.66;109949;1287;21890;-71
2023/11/02 11:07:10;;;;;;;3.20;2.10;;;;;;;26.43;60.23;100292.92;109943;1287;21992;-71
2023/11/02 11:09:36;;;;;;;3.60;2.00;;;;;;;26.52;59.55;100290.18;109937;1287;21910;-71
2023/11/02 11:12:03;;;;;;;3.50;1.90;;;;;;;26.58;57.93;100286.45;109955;1287;22001;-62
2023/11/02 11:14:29;;;;;;;7.10;1.60;;;;;;;26.64;57.17;100280.42;109949;1286;21944;-61
2023/11/02 11:16:55;;;;;;;4.00;1.70;;;;;;;26.59;56.23;100276.52;109964;1287;21986;-71
2023/11/02 11:19:21;;;;;;;3.10;1.50;;;;;;;26.49;55.60;100279.08;109940;1287;21955;-71
2023/11/02 11:21:47;;;;;;;4.90;1.60;;;;;;;26.41;55.57;100282.81;109929;1287;21864;-70
2023/11/02 11:24:16;;;;;;;4.30;1.70;;;;;;;26.33;55.19;100283.23;109849;1287;22398;-61